Terminal Aerodrome Forecast
Issued by NWS

Home | Current Version | Previous Version | Text Only | Print | Product List | Glossary On
Versions: 1 2 3 4 5 6 7 8 9 10 11 12 13 14 15 16 17
000
FTUS41 KBGM 231300 AAA
TAFRME
TAF AMD
KRME 231352Z 2314/2412 28012G22KT P6SM OVC015
      TEMPO 2314/2318 -SHRA SCT015 OVC025
     FM231800 30015G25KT P6SM OVC025
     FM232200 30015G25KT P6SM SCT025 BKN035
     FM240200 30010KT P6SM SKC=

USA.gov is the U.S. government's official web portal to all federal, state and local government web resources and services.